Time;durP1;ratioP1;P1;durP2;ratioP2;P2;SDS_P1;SDS_P2;PMS_P1;PMS_P2;Temp;Humidity;BMP_temperature;BMP_pressure;BME280_temperature;BME280_humidity;BME280_pressure;Samples;Min_cycle;Max_cycle;Signal;HPM_P1;HPM_P2
2020/12/13 00:00:08;;;;;;;25.45;19.20;;;12.00;99.90;;;12.21;82.58;100389.50;5072440;28;20119;-81
2020/12/13 00:02:37;;;;;;;23.10;18.23;;;12.00;99.90;;;12.21;82.50;100389.50;5072923;28;20053;-77
2020/12/13 00:05:05;;;;;;;24.25;19.27;;;12.00;99.90;;;12.19;82.41;100386.00;5072168;28;20043;-79
2020/12/13 00:07:33;;;;;;;20.98;17.20;;;12.00;99.90;;;12.18;82.54;100388.66;5072348;28;20044;-77
2020/12/13 00:10:01;;;;;;;21.25;16.23;;;12.00;99.90;;;12.15;82.40;100399.34;5104943;28;20033;-78
2020/12/13 00:12:28;;;;;;;21.05;15.45;;;11.90;99.90;;;12.16;82.27;100394.00;5072415;28;20493;-78
2020/12/13 00:14:56;;;;;;;20.40;16.55;;;11.90;99.90;;;12.12;82.42;100402.03;5072280;28;20072;-78
2020/12/13 00:17:23;;;;;;;21.50;16.83;;;11.90;99.90;;;12.09;82.11;100408.28;5072011;28;20102;-78
2020/12/13 00:19:51;;;;;;;22.05;17.40;;;11.80;99.90;;;11.84;82.29;100371.63;5072289;28;20036;-78
2020/12/13 00:22:18;;;;;;;26.58;17.75;;;11.80;99.90;;;12.03;82.20;100403.09;5071762;28;20055;-78
2020/12/13 00:24:46;;;;;;;23.98;17.83;;;11.80;99.90;;;11.84;82.39;100382.22;5072294;28;20124;-78
2020/12/13 00:27:14;;;;;;;22.40;17.42;;;11.80;99.90;;;11.98;82.35;100412.88;5075940;28;20101;-77
2020/12/13 00:29:41;;;;;;;24.70;18.08;;;11.70;99.90;;;11.98;82.32;100410.22;5078592;28;20444;-78
2020/12/13 00:32:09;;;;;;;23.15;17.05;;;11.70;99.90;;;11.93;82.49;100411.22;5078810;28;20036;-77
2020/12/13 00:34:36;;;;;;;23.58;18.05;;;11.70;99.90;;;11.91;82.48;100418.31;5078606;28;20040;-78
2020/12/13 00:37:04;;;;;;;23.63;17.73;;;11.70;99.90;;;11.84;82.13;100424.63;5077153;28;20044;-79
2020/12/13 00:39:34;;;;;;;24.67;17.38;;;11.60;99.90;;;11.64;82.12;100390.47;5078531;28;20048;-77
2020/12/13 00:42:02;;;;;;;25.67;17.48;;;11.50;99.90;;;11.71;82.21;100411.56;5078863;28;20041;-77
2020/12/13 00:44:29;;;;;;;23.90;17.02;;;11.50;99.90;;;11.73;82.36;100420.38;5077322;28;20049;-78
2020/12/13 00:46:56;;;;;;;27.58;18.73;;;11.50;99.90;;;11.69;82.37;100425.78;5078410;28;20048;-77
2020/12/13 00:49:24;;;;;;;25.73;18.95;;;11.50;99.90;;;11.61;82.38;100412.59;5077387;28;20044;-78
2020/12/13 00:52:00;;;;;;;26.27;17.85;;;11.40;99.90;;;11.67;82.73;100436.38;5077269;28;20045;-79
2020/12/13 00:54:28;;;;;;;24.15;17.85;;;11.40;99.90;;;11.69;82.56;100446.97;5077394;28;20448;-78
2020/12/13 00:56:55;;;;;;;25.17;17.83;;;11.40;99.90;;;11.50;82.35;100422.47;5077243;28;20052;-78
2020/12/13 00:59:25;;;;;;;25.23;17.90;;;11.40;99.90;;;11.67;82.68;100448.75;5077233;28;20127;-78
2020/12/13 01:01:53;;;;;;;27.83;17.60;;;11.40;99.90;;;11.55;82.48;100433.91;5077519;28;20048;-77
2020/12/13 01:04:21;;;;;;;25.70;16.98;;;11.40;99.90;;;11.59;82.92;100445.31;5077233;28;20146;-77
2020/12/13 01:06:49;;;;;;;22.85;16.83;;;11.40;99.90;;;11.56;82.86;100455.94;5078482;28;20051;-77
2020/12/13 01:09:16;;;;;;;24.48;15.98;;;11.40;99.90;;;11.57;83.01;100455.94;5078374;28;20551;-77
2020/12/13 01:11:44;;;;;;;22.27;17.35;;;11.40;99.90;;;11.60;83.01;100466.47;5078522;28;20063;-78
2020/12/13 01:14:11;;;;;;;19.70;14.60;;;11.30;99.90;;;11.63;83.39;100468.22;5078140;28;20095;-77
2020/12/13 01:16:39;;;;;;;21.30;15.48;;;11.40;99.90;;;11.65;83.26;100475.25;5078422;28;20432;-77
2020/12/13 01:19:07;;;;;;;22.00;15.50;;;11.40;99.90;;;11.52;83.31;100447.16;5078337;28;20052;-77
2020/12/13 01:21:34;;;;;;;22.48;15.38;;;11.40;99.90;;;11.62;83.36;100464.69;5078340;28;20470;-77
2020/12/13 01:24:01;;;;;;;16.08;13.27;;;11.40;99.90;;;11.62;83.38;100467.34;5078712;28;20072;-78
2020/12/13 01:26:29;;;;;;;17.90;12.90;;;11.40;99.90;;;11.57;83.26;100473.59;5078344;28;20048;-77
2020/12/13 01:28:56;;;;;;;18.10;13.50;;;11.30;99.90;;;11.60;83.40;100477.06;5078335;28;20124;-77
2020/12/13 01:31:24;;;;;;;15.25;11.27;;;11.40;99.90;;;11.57;83.47;100479.78;5077922;28;20119;-77
2020/12/13 01:33:53;;;;;;;16.55;12.35;;;11.30;99.90;;;11.62;83.19;100490.28;5078089;28;20102;-78
2020/12/13 01:36:22;;;;;;;14.68;11.90;;;11.40;99.90;;;11.54;83.16;100477.16;5078125;28;20124;-78
2020/12/13 01:38:51;;;;;;;15.27;12.68;;;11.40;99.90;;;11.65;83.08;100493.78;5074673;28;20399;-77
2020/12/13 01:41:19;;;;;;;17.42;13.75;;;11.50;99.90;;;11.68;82.85;100485.81;5074963;28;20051;-78
2020/12/13 01:43:59;;;;;;;17.05;13.93;;;11.50;99.90;;;11.59;83.07;100487.69;5074958;28;20131;-77
2020/12/13 01:46:27;;;;;;;16.10;13.15;;;11.40;99.90;;;11.16;83.06;100408.00;5074974;28;20059;-77
2020/12/13 01:49:02;;;;;;;15.05;12.57;;;11.50;99.90;;;11.49;83.12;100489.59;5074618;28;20043;-77
2020/12/13 01:51:44;;;;;;;15.40;13.75;;;11.40;99.90;;;11.43;83.58;100491.44;5074551;28;20452;-77
2020/12/13 01:54:14;;;;;;;18.33;13.95;;;11.20;99.90;;;11.47;83.50;100494.06;5074883;28;20040;-78
2020/12/13 01:56:46;;;;;;;19.40;13.40;;;11.30;99.90;;;11.52;83.29;100509.84;5075165;28;20047;-78
2020/12/13 01:59:17;;;;;;;17.52;14.85;;;11.30;99.90;;;11.38;82.89;100483.56;5074766;28;20513;-78
2020/12/13 02:01:49;;;;;;;18.30;13.90;;;11.30;99.90;;;11.46;82.65;100512.59;5074747;28;20133;-76
2020/12/13 02:04:21;;;;;;;16.88;14.25;;;11.30;99.90;;;11.47;82.60;100520.53;5074369;28;20043;-77
2020/12/13 02:06:54;;;;;;;18.85;14.88;;;11.30;99.90;;;11.29;82.83;100520.75;5074632;28;20051;-78
2020/12/13 02:09:22;;;;;;;16.20;14.38;;;11.20;99.90;;;11.29;82.74;100527.81;5074595;28;20048;-77
2020/12/13 02:11:50;;;;;;;18.00;14.98;;;11.10;99.90;;;11.23;83.07;100542.03;5074493;28;20386;-78
2020/12/13 02:14:18;;;;;;;17.42;15.63;;;11.10;99.90;;;11.27;83.18;100526.97;5073357;28;20082;-78
2020/12/13 02:16:48;;;;;;;16.55;14.15;;;11.10;99.90;;;10.73;83.00;100417.41;5074369;28;20045;-78
2020/12/13 02:19:16;;;;;;;18.50;15.95;;;11.20;99.90;;;11.33;82.79;100527.78;5074102;28;20075;-78
2020/12/13 02:21:45;;;;;;;16.63;14.90;;;11.20;99.90;;;11.24;82.82;100525.25;5074228;28;20050;-78
2020/12/13 02:24:15;;;;;;;19.35;15.82;;;11.10;99.90;;;11.23;82.79;100531.44;5072784;28;20056;-77
2020/12/13 02:26:44;;;;;;;17.90;14.90;;;11.00;99.90;;;11.09;82.68;100521.94;5073995;28;20048;-76
2020/12/13 02:29:12;;;;;;;19.77;15.60;;;11.00;99.90;;;11.22;82.71;100539.41;5074352;28;20118;-77
2020/12/13 02:31:40;;;;;;;19.90;15.55;;;11.00;99.90;;;11.33;82.55;100537.47;5074246;28;20045;-77
2020/12/13 02:34:08;;;;;;;17.52;15.68;;;11.10;99.90;;;11.46;82.09;100534.66;5074037;28;20127;-78
2020/12/13 02:36:37;;;;;;;18.88;15.75;;;11.20;99.90;;;11.35;81.67;100519.81;5074532;28;20551;-78
2020/12/13 02:39:06;;;;;;;19.90;15.30;;;11.30;99.90;;;11.51;81.57;100540.78;5073676;28;20079;-77
2020/12/13 02:41:35;;;;;;;18.88;15.77;;;11.40;99.90;;;11.60;81.59;100553.91;5073565;28;20127;-78
2020/12/13 02:44:03;;;;;;;18.58;15.25;;;11.40;99.90;;;11.71;81.32;100567.91;5073557;28;20113;-78
2020/12/13 02:46:31;;;;;;;19.80;16.98;;;11.50;99.90;;;11.61;81.20;100552.13;5073569;28;20052;-77
2020/12/13 02:48:58;;;;;;;19.63;14.80;;;11.60;99.90;;;11.14;80.89;100464.50;5073171;28;20051;-78
2020/12/13 02:51:26;;;;;;;18.35;15.40;;;11.60;99.90;;;11.63;81.06;100572.38;5073643;28;20129;-77
2020/12/13 02:53:53;;;;;;;18.80;16.38;;;11.60;99.90;;;11.76;80.72;100576.69;5073675;28;20040;-78
2020/12/13 02:56:21;;;;;;;18.33;16.35;;;11.60;99.90;;;11.81;80.62;100578.38;5073409;28;20040;-77
2020/12/13 02:58:49;;;;;;;17.58;15.48;;;11.60;99.90;;;11.83;80.60;100581.88;5073378;28;20044;-78
2020/12/13 03:01:16;;;;;;;20.33;16.50;;;11.60;99.90;;;11.85;80.54;100582.72;5073453;28;20494;-78
2020/12/13 03:03:44;;;;;;;16.90;15.10;;;11.70;99.90;;;11.86;80.44;100574.78;5073631;28;20434;-78
2020/12/13 03:06:11;;;;;;;22.73;16.48;;;11.70;99.90;;;11.82;80.73;100570.41;5073562;28;20075;-77
2020/12/13 03:08:38;;;;;;;17.10;14.60;;;11.70;99.90;;;11.78;80.62;100580.19;5073340;28;20033;-77
2020/12/13 03:11:06;;;;;;;18.35;14.15;;;11.70;99.90;;;11.62;80.79;100561.81;5073217;28;20424;-76
2020/12/13 03:13:33;;;;;;;17.15;15.10;;;11.60;99.90;;;11.85;80.96;100590.66;5073278;28;20040;-78
2020/12/13 03:16:01;;;;;;;20.02;15.82;;;11.60;99.90;;;11.88;80.82;100594.19;5071824;28;20049;-78
2020/12/13 03:18:29;;;;;;;17.67;14.75;;;11.70;99.90;;;11.95;80.81;100589.63;5073176;28;20576;-78
2020/12/13 03:20:56;;;;;;;17.40;14.43;;;11.70;99.90;;;11.93;80.84;100594.97;5073380;28;20436;-78
2020/12/13 03:23:23;;;;;;;18.08;15.18;;;11.70;99.90;;;11.93;81.06;100602.94;5073094;28;20056;-78
2020/12/13 03:25:52;;;;;;;18.80;14.07;;;11.70;99.90;;;11.81;81.47;100611.03;5073371;28;20090;-78
2020/12/13 03:28:19;;;;;;;20.52;13.93;;;11.60;99.90;;;11.69;82.02;100609.44;5072749;28;20394;-77
2020/12/13 03:30:47;;;;;;;18.95;14.07;;;11.50;99.90;;;11.64;82.58;100605.94;5072937;28;20044;-79
2020/12/13 03:33:15;;;;;;;16.75;13.95;;;11.50;99.90;;;11.63;82.74;100611.28;5072604;28;20482;-78
2020/12/13 03:35:42;;;;;;;15.40;13.43;;;11.40;99.90;;;11.58;83.05;100607.78;5073110;28;20056;-76
2020/12/13 03:38:10;;;;;;;17.77;12.77;;;11.30;99.90;;;11.71;83.24;100610.28;5072919;28;20082;-77
2020/12/13 03:40:37;;;;;;;16.75;12.52;;;11.40;99.90;;;11.81;82.77;100611.03;5072543;28;20486;-76
2020/12/13 03:43:05;;;;;;;15.43;12.40;;;11.60;99.90;;;11.82;82.67;100614.56;5072470;28;20042;-76
2020/12/13 03:45:32;;;;;;;14.88;11.20;;;11.60;99.90;;;11.61;82.80;100592.72;5072357;28;20080;-76
2020/12/13 03:48:00;;;;;;;11.88;9.82;;;11.60;99.90;;;11.77;82.61;100618.16;5072668;28;20044;-76
2020/12/13 03:50:38;;;;;;;12.85;10.57;;;11.60;99.90;;;11.78;82.52;100627.88;5072642;28;20044;-77
2020/12/13 03:53:07;;;;;;;14.55;11.20;;;11.60;99.90;;;11.83;82.64;100629.59;5072617;28;20056;-76
2020/12/13 03:55:35;;;;;;;12.95;11.57;;;11.60;99.90;;;11.81;82.57;100629.59;5071239;28;20071;-76
2020/12/13 03:58:02;;;;;;;13.65;11.57;;;11.60;99.90;;;11.75;82.42;100612.00;5072489;28;20125;-77
2020/12/13 04:00:30;;;;;;;13.45;11.10;;;11.70;99.90;;;11.85;82.12;100633.06;5072059;28;20555;-77
2020/12/13 04:02:59;;;;;;;14.15;11.20;;;11.60;99.90;;;11.85;82.42;100633.94;5070609;28;20456;-77
2020/12/13 04:05:31;;;;;;;15.27;12.30;;;11.60;99.90;;;11.64;82.14;100605.94;5072189;28;20123;-77
2020/12/13 04:07:59;;;;;;;13.85;11.75;;;11.60;99.90;;;11.80;82.20;100643.75;5072108;28;20481;-77
2020/12/13 04:10:27;;;;;;;14.80;12.35;;;11.60;99.90;;;11.70;82.09;100629.75;5072194;28;20049;-76
2020/12/13 04:12:55;;;;;;;15.88;13.05;;;11.50;99.90;;;11.58;82.53;100624.56;5072236;28;20037;-77
2020/12/13 04:15:22;;;;;;;16.88;13.52;;;11.50;99.90;;;11.61;82.19;100628.94;5072063;28;20040;-76
2020/12/13 04:17:50;;;;;;;15.68;13.32;;;11.50;99.90;;;11.57;82.38;100612.22;5072056;28;20041;-77
2020/12/13 04:20:18;;;;;;;16.33;13.85;;;11.50;99.90;;;11.73;82.33;100639.41;5072281;28;20040;-76
2020/12/13 04:22:47;;;;;;;20.75;14.25;;;11.50;99.90;;;11.71;82.12;100644.72;5071851;28;20521;-77
2020/12/13 04:25:14;;;;;;;16.77;13.82;;;11.50;99.90;;;11.52;82.30;100614.03;5072249;28;20051;-77
2020/12/13 04:27:42;;;;;;;15.80;14.05;;;11.40;99.90;;;11.67;82.27;100645.66;5071864;28;20541;-77
2020/12/13 04:30:09;;;;;;;17.98;14.60;;;11.40;99.90;;;11.59;82.31;100636.03;5071915;28;20461;-77
2020/12/13 04:32:37;;;;;;;14.65;12.75;;;11.40;99.90;;;11.52;82.36;100624.63;5071846;28;20076;-76
2020/12/13 04:35:04;;;;;;;19.52;15.07;;;11.40;99.90;;;11.63;82.25;100659.81;5071877;28;20094;-77
2020/12/13 04:37:32;;;;;;;16.33;13.88;;;11.40;99.90;;;11.59;82.27;100658.09;5070738;28;20139;-76
2020/12/13 04:40:01;;;;;;;17.58;14.15;;;11.40;99.90;;;11.57;82.42;100654.59;5072050;28;20420;-77
2020/12/13 04:42:30;;;;;;;16.55;13.48;;;11.40;99.90;;;11.53;82.88;100663.47;5070594;28;20049;-77
2020/12/13 04:44:58;;;;;;;17.52;13.98;;;11.30;99.90;;;11.51;83.06;100657.31;5071965;28;20049;-76
2020/12/13 04:47:29;;;;;;;20.52;14.75;;;11.30;99.90;;;11.45;83.19;100656.50;5072013;28;20082;-76
2020/12/13 04:49:58;;;;;;;;;;;11.20;99.90;;;11.47;83.43;100655.59;5071172;28;20052;-77
2020/12/13 04:52:27;;;;;;;19.55;16.65;;;11.30;99.90;;;11.50;83.46;100659.97;5070603;28;19971;-77
2020/12/13 04:54:54;;;;;;;23.27;16.80;;;11.30;99.90;;;11.51;83.51;100665.28;5071699;28;20067;-77
2020/12/13 04:57:23;;;;;;;24.67;16.10;;;11.40;99.90;;;11.53;83.64;100662.59;5071620;28;20060;-77
2020/12/13 04:59:52;;;;;;;23.80;15.70;;;11.30;99.90;;;11.55;83.75;100667.00;5071918;28;20492;-77
2020/12/13 05:02:19;;;;;;;27.75;16.25;;;11.40;99.90;;;11.45;83.65;100662.69;5070509;28;20041;-77
2020/12/13 05:04:47;;;;;;;29.30;16.10;;;11.30;99.90;;;11.34;83.81;100646.03;5071806;28;20059;-77
2020/12/13 05:07:19;;;;;;;21.13;14.20;;;11.20;99.90;;;11.37;83.53;100653.06;5070515;28;20045;-77
2020/12/13 05:09:52;;;;;;;26.77;13.90;;;11.20;99.90;;;11.35;83.82;100662.78;5071828;28;20097;-77
2020/12/13 05:12:24;;;;;;;22.65;12.88;;;11.20;99.90;;;11.25;83.62;100661.13;5071771;28;20094;-76
2020/12/13 05:14:51;;;;;;;21.50;12.70;;;11.10;99.90;;;11.24;83.63;100668.22;5075304;28;20110;-76
2020/12/13 05:17:19;;;;;;;17.42;11.77;;;11.10;99.90;;;11.26;83.58;100671.72;5075462;28;20444;-78
2020/12/13 05:19:50;;;;;;;18.25;11.48;;;11.10;99.90;;;11.28;83.14;100669.06;5075197;28;20513;-76
2020/12/13 05:22:21;;;;;;;20.08;11.93;;;11.10;99.90;;;11.01;83.36;100645.50;5074973;28;20778;-76
2020/12/13 05:24:49;;;;;;;21.00;12.82;;;11.00;99.90;;;11.18;83.28;100659.44;5075307;28;20417;-78
2020/12/13 05:27:22;;;;;;;20.55;11.77;;;11.10;99.90;;;11.32;83.08;100655.78;5075278;28;20049;-77
2020/12/13 05:29:55;;;;;;;25.02;12.32;;;11.20;99.90;;;11.45;82.84;100675.03;5073979;28;20037;-78
2020/12/13 05:32:24;;;;;;;18.88;11.93;;;11.30;99.90;;;11.48;82.72;100675.00;5075251;28;20090;-77
2020/12/13 05:34:53;;;;;;;17.52;11.02;;;11.30;99.90;;;11.38;82.62;100663.63;5074154;28;20082;-76
2020/12/13 05:37:20;;;;;;;24.80;12.05;;;11.30;99.90;;;11.29;82.45;100650.50;5074871;28;20040;-78
2020/12/13 05:39:51;;;;;;;19.00;11.88;;;11.30;99.90;;;11.52;82.29;100671.41;5075102;28;20048;-77
2020/12/13 05:42:29;;;;;;;17.38;11.43;;;11.40;99.90;;;11.58;81.89;100680.19;5074686;28;20451;-76
2020/12/13 05:45:12;;;;;;;15.65;10.80;;;11.40;99.90;;;11.58;81.61;100680.19;5074714;28;20052;-77
2020/12/13 05:50:47;;;;;;;14.45;9.60;;;11.40;99.90;;;11.52;80.91;100664.34;5069150;28;20114;-77
2020/12/13 05:53:15;;;;;;;16.02;9.52;;;11.40;99.90;;;11.56;80.60;100667.84;5074610;28;20082;-76
2020/12/13 05:55:47;;;;;;;18.65;9.43;;;11.40;99.90;;;11.40;80.65;100659.19;5073570;28;20052;-78
2020/12/13 05:58:14;;;;;;;13.80;8.27;;;11.40;99.90;;;11.47;80.07;100673.25;5074985;28;20078;-78
2020/12/13 06:00:43;;;;;;;16.92;9.05;;;11.30;99.90;;;11.43;80.01;100682.13;5074438;28;20132;-77
2020/12/13 06:03:14;;;;;;;13.18;7.97;;;11.30;99.90;;;11.44;80.20;100689.19;5074936;28;20478;-77
2020/12/13 06:05:43;;;;;;;14.77;8.90;;;11.20;99.90;;;11.46;80.22;100682.97;5074356;28;20045;-77
2020/12/13 06:08:15;;;;;;;17.08;9.00;;;11.30;99.90;;;11.50;80.20;100689.09;5074289;28;20125;-77
2020/12/13 06:10:45;;;;;;;13.30;8.25;;;11.30;99.90;;;11.44;80.57;100673.31;5073110;28;20045;-77
2020/12/13 06:13:19;;;;;;;13.95;9.60;;;11.30;99.90;;;11.59;80.30;100700.47;5074138;28;20126;-78
2020/12/13 06:15:48;;;;;;;15.27;9.32;;;11.40;99.90;;;11.58;79.99;100696.09;5074461;28;20127;-77
2020/12/13 06:18:16;;;;;;;12.18;9.30;;;11.40;99.90;;;11.56;79.92;100699.63;5074660;28;20124;-78
2020/12/13 06:20:47;;;;;;;12.48;9.15;;;11.30;99.90;;;11.58;80.12;100701.38;5074306;28;20409;-77
2020/12/13 06:23:19;;;;;;;11.10;8.77;;;11.30;99.90;;;11.56;79.87;100704.94;5074079;28;20056;-77
2020/12/13 06:25:47;;;;;;;15.98;9.75;;;11.30;99.90;;;11.51;79.89;100694.41;5073540;28;20106;-77
2020/12/13 06:28:15;;;;;;;17.23;9.40;;;11.30;99.90;;;11.56;79.91;100695.22;5074166;28;20040;-77
2020/12/13 06:30:44;;;;;;;13.75;8.50;;;11.30;99.90;;;11.52;79.84;100695.25;5073904;28;20045;-78
2020/12/13 06:33:12;;;;;;;19.90;8.98;;;11.30;99.90;;;11.52;79.64;100705.84;5073745;28;20421;-78
2020/12/13 06:35:43;;;;;;;14.00;9.00;;;11.30;99.90;;;11.52;79.67;100704.09;5074003;28;20448;-77
2020/12/13 06:38:18;;;;;;;11.10;7.80;;;11.30;99.90;;;11.37;79.76;100672.47;5074086;28;20105;-78
2020/12/13 06:40:49;;;;;;;13.35;8.30;;;11.30;99.90;;;11.50;79.82;100703.22;5072620;28;20393;-78
2020/12/13 06:43:17;;;;;;;14.90;8.30;;;11.30;99.90;;;11.29;79.51;100666.38;5073745;28;20555;-78
2020/12/13 06:45:46;;;;;;;14.13;8.07;;;11.30;99.90;;;11.46;79.61;100708.56;5073911;28;20462;-77
2020/12/13 06:48:14;;;;;;;13.63;8.93;;;11.20;99.90;;;11.43;79.45;100703.31;5073772;28;20056;-78
2020/12/13 06:50:42;;;;;;;18.02;7.47;;;11.20;99.90;;;11.39;79.42;100701.59;5073423;28;20049;-77
2020/12/13 06:53:16;;;;;;;13.52;7.68;;;11.10;99.90;;;11.35;79.45;100708.69;5073430;28;20497;-77
2020/12/13 06:55:44;;;;;;;16.48;8.43;;;11.10;99.90;;;11.33;79.67;100709.59;5073385;28;20496;-77
2020/12/13 06:58:12;;;;;;;18.08;8.52;;;11.00;99.90;;;11.14;79.70;100690.38;5073276;28;20036;-77
2020/12/13 07:00:49;;;;;;;22.13;9.95;;;11.00;99.90;;;10.71;79.70;100636.97;5073250;28;20455;-77
2020/12/13 07:03:27;;;;;;;18.83;11.70;;;11.00;99.90;;;11.25;79.55;100727.31;5073210;28;20040;-77
2020/12/13 07:05:56;;;;;;;15.75;11.23;;;11.00;99.90;;;11.22;79.29;100733.53;5073519;28;20048;-78
2020/12/13 07:08:26;;;;;;;16.80;9.13;;;11.00;99.90;;;11.08;79.34;100716.91;5072216;28;20053;-78
2020/12/13 07:10:54;;;;;;;17.92;8.77;;;10.90;99.90;;;11.14;79.37;100734.50;5073355;28;20098;-77
2020/12/13 07:13:23;;;;;;;20.40;9.48;;;10.90;99.90;;;10.97;79.20;100729.34;5072084;28;20036;-77
2020/12/13 07:15:57;;;;;;;20.50;9.55;;;10.80;99.90;;;11.00;79.34;100742.53;5073290;28;20045;-78
2020/12/13 07:18:27;;;;;;;19.83;8.43;;;10.80;99.90;;;10.95;79.41;100743.47;5073262;28;20048;-78
2020/12/13 07:20:56;;;;;;;14.57;8.52;;;10.70;99.90;;;10.92;79.48;100757.59;5073203;28;20041;-78
2020/12/13 07:23:23;;;;;;;14.73;7.75;;;10.70;99.90;;;10.87;79.42;100754.13;5072941;28;20094;-78
2020/12/13 07:25:53;;;;;;;23.05;9.40;;;10.60;99.90;;;10.78;79.42;100741.84;5073099;28;20044;-77
2020/12/13 07:28:22;;;;;;;17.60;8.48;;;10.60;99.90;;;10.78;79.56;100751.56;5071632;28;20132;-78
2020/12/13 07:30:50;;;;;;;12.77;8.02;;;10.60;99.90;;;10.69;79.18;100749.84;5073042;28;20040;-77
2020/12/13 07:33:17;;;;;;;20.35;9.60;;;10.50;99.90;;;10.62;79.10;100753.44;5073222;28;20525;-75
2020/12/13 07:35:46;;;;;;;15.50;8.55;;;10.40;99.90;;;10.60;79.19;100760.50;5072276;28;20045;-78
2020/12/13 07:38:13;;;;;;;18.95;9.40;;;10.30;99.90;;;10.52;78.98;100761.41;5072900;28;20048;-76
2020/12/13 07:40:41;;;;;;;20.17;9.18;;;10.30;99.90;;;10.48;79.42;100767.59;5072962;28;20040;-78
2020/12/13 07:43:09;;;;;;;20.42;9.93;;;10.20;99.90;;;10.36;79.26;100750.06;5072716;28;20105;-76
2020/12/13 07:45:37;;;;;;;20.15;10.65;;;10.20;99.90;;;9.69;79.05;100645.56;5072503;28;20048;-78
2020/12/13 07:48:04;;;;;;;19.05;10.02;;;10.20;99.90;;;10.14;79.37;100745.78;5072794;28;20048;-78
2020/12/13 07:50:43;;;;;;;27.02;11.35;;;10.10;99.90;;;10.13;79.30;100767.78;5072418;28;20041;-78
2020/12/13 07:53:12;;;;;;;20.27;10.10;;;10.00;99.90;;;10.21;79.51;100780.97;5072572;28;20039;-77
2020/12/13 07:55:42;;;;;;;21.60;9.43;;;10.00;99.90;;;10.18;79.42;100788.91;5072797;28;20135;-76
2020/12/13 07:58:10;;;;;;;19.23;9.65;;;9.90;99.90;;;9.94;80.06;100774.00;5071317;28;20048;-77
2020/12/13 08:00:37;;;;;;;18.27;9.27;;;9.90;99.90;;;10.08;80.16;100790.69;5072227;28;20044;-78
2020/12/13 08:03:05;;;;;;;16.90;8.88;;;9.80;99.90;;;10.08;80.25;100798.63;5072698;28;20048;-77
2020/12/13 08:05:33;;;;;;;23.48;10.13;;;9.80;99.90;;;10.17;80.85;100797.72;5072172;28;20067;-77
2020/12/13 08:08:01;;;;;;;20.50;9.70;;;9.90;99.90;;;10.20;80.40;100795.94;5072222;28;20056;-78
2020/12/13 08:10:29;;;;;;;14.70;8.00;;;10.00;99.90;;;10.41;80.27;100797.63;5071035;28;20531;-78
2020/12/13 08:12:57;;;;;;;16.05;8.23;;;10.10;99.90;;;10.59;79.36;100813.38;5072278;28;20048;-77
2020/12/13 08:15:25;;;;;;;16.58;8.50;;;10.30;99.90;;;10.72;78.85;100813.28;5072037;28;20090;-78
2020/12/13 08:18:04;;;;;;;13.40;7.78;;;10.50;99.90;;;10.96;78.01;100828.16;5072248;28;20046;-79
2020/12/13 08:20:37;;;;;;;18.48;8.43;;;10.70;99.90;;;10.62;77.09;100713.75;5072245;28;20047;-82
2020/12/13 08:23:07;;;;;;;15.40;7.32;;;10.90;99.90;;;11.42;76.09;100812.81;5071990;28;20060;-82
2020/12/13 08:25:36;;;;;;;18.25;8.73;;;11.20;99.90;;;11.77;75.07;100822.19;5072105;28;20158;-83
2020/12/13 08:28:05;;;;;;;16.65;8.48;;;11.50;99.90;;;11.89;73.77;100812.34;5071932;28;20127;-83
2020/12/13 08:30:33;;;;;;;12.80;7.00;;;11.70;99.90;;;12.21;72.95;100834.97;5072088;28;20052;-80
2020/12/13 08:33:00;;;;;;;21.70;8.05;;;11.90;99.90;;;12.47;72.09;100826.69;5072068;28;20067;-82
2020/12/13 08:35:32;;;;;;;15.20;7.70;;;12.20;99.90;;;11.89;70.62;100712.53;5072349;28;20062;-83
2020/12/13 08:38:02;;;;;;;11.30;7.63;;;12.40;99.90;;;12.78;69.62;100833.34;5072193;28;20049;-81
2020/12/13 08:40:37;;;;;;;13.20;7.05;;;12.50;99.90;;;12.99;69.11;100841.00;5071691;28;20068;-81
2020/12/13 08:43:05;;;;;;;16.33;7.55;;;12.70;99.90;;;13.21;68.25;100845.13;5072089;28;20048;-83
2020/12/13 08:45:33;;;;;;;15.73;7.95;;;12.90;99.90;;;13.45;67.24;100846.53;5072041;28;20056;-82
2020/12/13 08:48:09;;;;;;;13.73;7.25;;;13.20;99.90;;;13.61;66.33;100840.03;5073457;28;20051;-72
2020/12/13 08:50:40;;;;;;;17.05;7.80;;;13.30;99.90;;;13.82;65.63;100842.31;5076030;28;20050;-78
2020/12/13 08:53:28;;;;;;;12.52;7.47;;;13.50;99.90;;;13.93;64.92;100847.44;5076134;28;20116;-78
2020/12/13 08:56:04;;;;;;;11.38;6.90;;;13.70;99.90;;;14.10;64.59;100846.22;5070943;28;20405;-78
2020/12/13 08:58:46;;;;;;;14.57;7.93;;;13.80;99.90;;;14.18;64.44;100851.38;5075475;28;20375;-78
2020/12/13 09:01:13;;;;;;;14.98;7.93;;;13.90;99.90;;;14.34;63.63;100853.72;5075817;28;20494;-75
2020/12/13 09:03:42;;;;;;;15.25;7.88;;;14.10;99.90;;;13.82;63.02;100751.06;5075994;28;20500;-77
2020/12/13 09:06:10;;;;;;;14.30;8.05;;;14.20;99.90;;;14.61;62.79;100856.75;5075939;28;20044;-77
2020/12/13 09:08:37;;;;;;;16.65;7.68;;;14.40;99.90;;;14.71;62.65;100850.34;5075407;28;20071;-81
2020/12/13 09:11:05;;;;;;;17.25;8.60;;;14.60;99.90;;;14.94;61.87;100867.53;5074067;28;20048;-77
2020/12/13 09:13:33;;;;;;;18.23;8.35;;;14.70;99.90;;;14.94;61.59;100856.03;5075458;28;20040;-74
2020/12/13 09:16:04;;;;;;;14.43;7.90;;;14.80;99.90;;;15.10;61.46;100873.41;5075648;28;20483;-75
2020/12/13 09:18:32;;;;;;;17.75;7.93;;;14.90;99.90;;;15.29;61.37;100872.09;5075425;28;20052;-75
2020/12/13 09:20:59;;;;;;;16.67;9.25;;;15.00;99.90;;;15.43;60.93;100871.78;5075519;28;20045;-75
2020/12/13 09:23:27;;;;;;;14.23;8.35;;;15.30;99.90;;;15.35;60.26;100872.81;5075246;28;20056;-75
2020/12/13 09:25:55;;;;;;;15.68;8.77;;;15.40;99.90;;;15.24;60.64;100842.00;5074131;28;20041;-75
2020/12/13 09:28:23;;;;;;;13.52;8.65;;;15.20;99.90;;;15.50;60.20;100870.72;5075449;28;20441;-75
2020/12/13 09:30:51;;;;;;;13.60;9.15;;;15.40;99.90;;;15.41;60.25;100858.44;5075702;28;20090;-79
2020/12/13 09:33:19;;;;;;;14.73;8.60;;;15.40;99.90;;;15.68;60.06;100878.28;5075669;28;20072;-77
2020/12/13 09:35:47;;;;;;;18.20;9.25;;;15.60;99.90;;;15.79;59.31;100881.53;5075914;28;20048;-77
2020/12/13 09:38:14;;;;;;;18.17;9.30;;;15.60;99.90;;;15.97;59.11;100879.25;5076167;28;20047;-79
2020/12/13 09:40:42;;;;;;;15.60;9.50;;;15.80;99.90;;;16.17;58.62;100884.06;5075799;28;20474;-83
2020/12/13 09:43:10;;;;;;;11.18;8.65;;;16.00;99.90;;;15.95;58.01;100881.09;5075775;28;20045;-70
2020/12/13 09:45:38;;;;;;;15.05;8.48;;;15.80;99.90;;;15.96;57.89;100873.97;5075570;28;20118;-79
2020/12/13 09:48:05;;;;;;;20.33;9.68;;;15.80;99.90;;;15.92;57.90;100896.31;5075411;28;20041;-80
2020/12/13 09:50:33;;;;;;;14.30;8.35;;;15.70;99.90;;;15.37;58.04;100827.44;5074988;28;20055;-78
2020/12/13 09:53:00;;;;;;;16.23;9.07;;;15.60;99.90;;;15.56;58.33;100879.47;5075106;28;20033;-79
2020/12/13 09:55:27;;;;;;;13.68;9.07;;;15.40;99.90;;;15.64;58.79;100887.25;5074993;28;20052;-78
2020/12/13 09:57:55;;;;;;;19.20;8.57;;;15.40;99.90;;;15.54;58.96;100891.06;5075175;28;20123;-77
2020/12/13 10:00:22;;;;;;;19.77;10.10;;;15.30;99.90;;;15.28;59.23;100860.53;5073707;28;20037;-78
2020/12/13 10:02:51;;;;;;;14.85;8.93;;;15.20;99.90;;;15.08;59.10;100868.09;5074213;28;20549;-82
2020/12/13 10:05:23;;;;;;;11.27;8.45;;;14.90;99.90;;;14.81;59.88;100889.16;5073959;28;20063;-85
2020/12/13 10:10:36;;;;;;;13.73;8.00;;;14.30;99.90;;;14.17;61.29;100852.28;5073091;28;20080;-84
2020/12/13 10:13:04;;;;;;;15.70;8.52;;;14.10;99.90;;;14.16;61.81;100875.38;5074411;28;20068;-82
2020/12/13 10:15:31;;;;;;;12.80;7.78;;;13.90;99.90;;;13.99;62.25;100882.78;5073949;28;20041;-79